Terminal Aerodrome Forecast
Issued by NWS Dodge City, KS

Home | Current Version | Previous Version | Text Only | Print | Product List | Glossary On
Versions: 1 2 3 4 5 6 7 8 9 10 11 12 13 14 15 16 17 18 19 20 21 22 23 24 25 26 27 28
000
FTUS43 KDDC 261741
TAFDDC
TAF
KDDC 261741Z 2618/2718 08015G24KT 4SM BR OVC004
     FM262200 03014KT 4SM BR VCTS OVC008CB
     FM270300 36010KT 5SM BR OVC008
     FM270800 32008KT 1SM BR OVC003
     FM271500 33007KT P6SM SCT250=

USA.gov is the U.S. government's official web portal to all federal, state and local government web resources and services.